• Join FlightAware (Why Join?)
  • Login
  • US Flag 
05:28AM EDT


 

Airport Tracker/Info


-or-


 

Live Flight TrackerFlight Track Log ✈ ANT506 ✈ 04-Sep-2013 ✈ CYVR - CYXY

Flight Track Log - Related Links

Times and Time Zones

All times are in EDT time to prevent confusion due to time zone crossing. See the ANT506 flight status page for this flight to view local times or setup timezone preferences in your user account.

Time Position Orientation Groundspeed Altitude Reporting Facility
EDT Latitude Longitude Course Direction KTS MPH feet Rate Location/Type
02:24PM 49.1667 -123.2167 334° Northwest 130 150 800  Level Vancouver Center
02:25PM 49.1833 -123.2833 291° West 210 242 2,700 2,160 Climbing Vancouver Center
02:26PM 49.2167 -123.3667 302° West 230 265 5,200 2,100 Climbing Vancouver Center
02:27PM 49.2833 -123.3333 18° North 280 322 6,900 2,220 Climbing Vancouver Center
02:28PM 49.3667 -123.3167 North 310 357 9,700 2,580 Climbing Vancouver Center
02:29PM 49.7460 -123.6762 334° Northwest  Level FlightAware Approximate
02:29PM 49.4667 -123.3167 360° North 330 380 12,100  Level Vancouver Center
02:30PM 49.5667 -123.2833 12° North 370 426 15,300 3,060 Climbing Vancouver Center
02:31PM 49.6667 -123.2500 12° North 380 437 18,300 2,700 Climbing Vancouver Center
02:32PM 49.7833 -123.2333 North 400 460 20,700 2,400 Climbing Vancouver Center
02:33PM 49.9000 -123.2833 345° North 420 483 23,100 2,340 Climbing Vancouver Center
02:34PM 50.0000 -123.3500 337° Northwest 430 495 25,400 2,040 Climbing Vancouver Center
02:35PM 50.1167 -123.4667 327° Northwest 450 518 27,200 1,860 Climbing Vancouver Center
02:36PM 50.2333 -123.5333 340° North 460 529 29,200 1,800 Climbing Vancouver Center
02:37PM 50.3500 -123.6167 336° Northwest 470 541 30,800 1,800 Climbing Vancouver Center
02:38PM 50.4667 -123.7167 331° Northwest 480 552 32,900 1,860 Climbing Vancouver Center
02:39PM 50.5833 -123.8000 336° Northwest 470 541 34,600 1,440 Climbing Vancouver Center
02:40PM 50.7000 -123.9000 332° Northwest 470 541 35,800 660 Climbing Vancouver Center
02:41PM 50.8167 -123.9833 336° Northwest 470 541 36,000 60 Climbing Vancouver Center
02:42PM 50.9333 -124.0833 332° Northwest 470 541 36,000  Level Vancouver Center
02:43PM 51.0500 -124.1667 336° Northwest 470 541 36,000  Level Vancouver Center
02:44PM 51.1667 -124.2833 328° Northwest 470 541 36,000  Level Vancouver Center
02:45PM 51.2833 -124.3667 336° Northwest 470 541 36,000  Level Vancouver Center
02:46PM 51.4000 -124.4333 340° North 470 541 36,000  Level Vancouver Center
02:47PM 51.5167 -124.5500 328° Northwest 460 529 36,000  Level Vancouver Center
02:48PM 51.6333 -124.6333 336° Northwest 460 529 36,000  Level Vancouver Center
02:49PM 51.7500 -124.7167 336° Northwest 460 529 36,000  Level Vancouver Center
02:50PM 51.8667 -124.8333 328° Northwest 450 518 36,000  Level Vancouver Center
02:51PM 51.9667 -124.9167 333° Northwest 450 518 36,000  Level Vancouver Center
02:52PM 52.0833 -125.0000 336° Northwest 450 518 36,000  Level Vancouver Center
02:53PM 52.1833 -125.1000 328° Northwest 440 506 36,000  Level Vancouver Center
02:54PM 52.3000 -125.1833 336° Northwest 440 506 36,000  Level Vancouver Center
02:55PM 52.4167 -125.2833 332° Northwest 440 506 36,000  Level Vancouver Center
02:56PM 52.5167 -125.3667 333° Northwest 440 506 36,000  Level Vancouver Center
02:57PM 52.6333 -125.4833 329° Northwest 440 506 36,000  Level Vancouver Center
02:58PM 52.7333 -125.5667 333° Northwest 440 506 36,000  Level Vancouver Center
02:59PM 52.8500 -125.6500 337° Northwest 440 506 36,000  Level Vancouver Center
03:00PM 52.9500 -125.7333 333° Northwest 440 506 36,000  Level Vancouver Center
03:01PM 53.0667 -125.8500 329° Northwest 430 495 36,000  Level Vancouver Center
03:02PM 53.1833 -125.9333 337° Northwest 430 495 36,000  Level Vancouver Center
03:03PM 53.2667 -126.0333 324° Northwest 430 495 36,000  Level Vancouver Center
03:04PM 53.3667 -126.1167 334° Northwest 430 495 36,000  Level Vancouver Center
03:05PM 53.4833 -126.2167 333° Northwest 430 495 36,000  Level Vancouver Center
03:06PM 53.5833 -126.3000 334° Northwest 430 495 36,000  Level Vancouver Center
03:07PM 53.7000 -126.4167 329° Northwest 420 483 36,000  Level Vancouver Center
03:08PM 53.7833 -126.5167 325° Northwest 420 483 36,000  Level Vancouver Center
03:09PM 53.9000 -126.6000 337° Northwest 420 483 36,000  Level Vancouver Center
03:10PM 54.0000 -126.7000 330° Northwest 410 472 36,000  Level Vancouver Center
03:11PM 54.1000 -126.7833 334° Northwest 410 472 36,000  Level Vancouver Center
03:12PM 54.1833 -126.8833 325° Northwest 410 472 36,000 -420 Level Vancouver Center
03:13PM 54.2833 -126.9667 334° Northwest 400 460 35,200 -900 Descending Vancouver Center
03:14PM 54.3833 -127.0667 330° Northwest 380 437 34,200 -960 Descending Vancouver Center
03:15PM 54.4667 -127.1333 335° Northwest 370 426 33,300 -960 Descending Vancouver Center
03:16PM 54.5667 -127.2167 334° Northwest 370 426 32,300 -660 Descending Vancouver Center
03:17PM 54.6500 -127.3167 325° Northwest 360 414 32,000 -180 Descending Vancouver Center
03:18PM 54.7500 -127.3833 339° North 370 426 32,000  Level Vancouver Center
03:19PM 54.8500 -127.4833 330° Northwest 370 426 32,000  Level Vancouver Center
03:20PM 54.9333 -127.5667 330° Northwest 390 449 32,000  Level Vancouver Center
03:21PM 55.0167 -127.6667 325° Northwest 370 426 32,000  Level Vancouver Center
03:22PM 55.1167 -127.7667 330° Northwest 380 437 32,000  Level Vancouver Center
03:23PM 55.2167 -127.8333 339° North 380 437 32,000  Level Vancouver Center
03:24PM 55.3000 -127.9333 326° Northwest 370 426 32,000  Level Vancouver Center
03:25PM 55.4000 -128.0167 335° Northwest 370 426 32,000  Level Vancouver Center
03:26PM 55.4667 -128.1167 320° Northwest 400 460 32,000  Level Vancouver Center
03:27PM 55.5667 -128.1833 339° North 380 437 32,000  Level Vancouver Center
03:28PM 55.6667 -128.2833 331° Northwest 400 460 32,000  Level Vancouver Center
03:29PM 55.7500 -128.3833 326° Northwest 390 449 32,000  Level Vancouver Center
03:30PM 55.8500 -128.4833 331° Northwest 380 437 32,000  Level Vancouver Center
03:31PM 55.9333 -128.5833 326° Northwest 380 437 32,000  Level Vancouver Center
03:32PM 56.0333 -128.6833 331° Northwest 400 460 32,000  Level Vancouver Center
03:33PM 56.1333 -128.8000 327° Northwest 380 437 32,000  Level Vancouver Center
03:34PM 56.2333 -128.8667 340° North 400 460 32,000  Level Vancouver Center
03:35PM 56.3167 -128.9667 326° Northwest 400 460 32,000  Level Vancouver Center
03:36PM 56.4000 -129.0667 326° Northwest 390 449 32,000  Level Vancouver Center
03:37PM 56.5000 -129.1667 331° Northwest 380 437 32,000  Level Vancouver Center
03:38PM 56.6000 -129.3000 324° Northwest 380 437 32,000  Level Vancouver Center
03:39PM 56.7000 -129.3833 335° Northwest 410 472 32,000  Level Vancouver Center
03:40PM 56.7667 -129.4833 321° Northwest 390 449 32,000  Level Vancouver Center
03:41PM 56.8667 -129.6167 324° Northwest 410 472 32,000  Level Vancouver Center
03:42PM 56.9667 -129.7333 328° Northwest 370 426 32,000  Level Vancouver Center
03:43PM 57.0500 -129.8333 327° Northwest 390 449 32,000  Level Vancouver Center
03:45PM 57.1683 -129.9874 325° Northwest  Level FlightAware Approximate
03:52PM 57.7788 -130.8020 325° Northwest  Level FlightAware Approximate
03:53PM 57.8656 -130.9207 324° Northwest  Level FlightAware Approximate
03:54PM 57.9522 -131.0399 324° Northwest  Level FlightAware Approximate
03:55PM 58.0388 -131.1597 324° Northwest  Level FlightAware Approximate
03:56PM 58.1252 -131.2800 324° Northwest  Level FlightAware Approximate
03:57PM 58.2116 -131.4010 324° Northwest  Level FlightAware Approximate
03:58PM 58.2978 -131.5225 323° Northwest  Level FlightAware Approximate
03:59PM 58.3839 -131.6446 323° Northwest  Level FlightAware Approximate
04:00PM 58.4698 -131.7674 323° Northwest  Level FlightAware Approximate
04:01PM 58.5557 -131.8907 323° Northwest  Level FlightAware Approximate
04:02PM 58.6414 -132.0146 323° Northwest  Level FlightAware Approximate
04:03PM 58.7271 -132.1392 323° Northwest  Level FlightAware Approximate
04:04PM 58.8126 -132.2643 323° Northwest  Level FlightAware Approximate
04:05PM 58.8979 -132.3901 323° Northwest  Level FlightAware Approximate
04:06PM 58.9832 -132.5165 323° Northwest  Level FlightAware Approximate
04:07PM 59.0692 -132.6405 323° Northwest  Level FlightAware Approximate
04:08PM 59.1538 -132.7691 318° Northwest  Level FlightAware Approximate
04:09PM 59.2395 -132.8927 322° Northwest  Level FlightAware Approximate
04:10PM 59.3242 -133.0218 322° Northwest  Level FlightAware Approximate
04:11PM 59.4087 -133.1515 322° Northwest  Level FlightAware Approximate
04:12PM 59.4930 -133.2823 321° Northwest  Level FlightAware Approximate
04:13PM 59.5761 -133.4164 321° Northwest  Level FlightAware Approximate
04:14PM 59.6590 -133.5511 321° Northwest  Level FlightAware Approximate
04:15PM 59.7418 -133.6865 321° Northwest  Level FlightAware Approximate
04:16PM 59.8247 -133.8220 321° Northwest  Level FlightAware Approximate
04:17PM 59.9075 -133.9581 321° Northwest  Level FlightAware Approximate
04:18PM 59.9902 -134.0948 320° Northwest  Level FlightAware Approximate
04:19PM 60.0727 -134.2321 320° Northwest  Level FlightAware Approximate
04:20PM 60.1555 -134.3692 321° Northwest  Level FlightAware Approximate
04:21PM 60.2390 -134.5049 321° Northwest  Level FlightAware Approximate
04:22PM 60.3230 -134.6397 322° Northwest  Level FlightAware Approximate
04:23PM 60.4072 -134.7745 322° Northwest  Level FlightAware Approximate
04:24PM 60.4894 -134.9144 319° Northwest  Level FlightAware Approximate
04:25PM 60.5707 -135.0567 321° Northwest  Level FlightAware Approximate
04:26PM 60.6609 -135.0960 20° North  Level FlightAware Approximate
04:27PM 60.7000 -135.0667 20° North  Level FlightAware Approximate
04:28PM 60.7095 -135.0673 20° North  Level Estimated
04:29PM 60.7095 -135.0673 20° North  Level Estimated
04:30PM 60.7095 -135.0673 20° North  Level Estimated
04:31PM 60.7095 -135.0673 20° North  Level Estimated
04:32PM 60.7095 -135.0673 20° North  Level Estimated
04:33PM 60.7095 -135.0673 20° North  Level Estimated
04:34PM 60.7095 -135.0673 20° North  Level Estimated
04:35PM 60.7095 -135.0673 20° North  Level Estimated
04:36PM 60.7095 -135.0673 20° North  Level Estimated